createdAt,value
2023-03-26T00:00:37.902Z,63.04
2023-03-26T00:03:05.098Z,63.57
2023-03-26T00:05:33.036Z,62.87
2023-03-26T00:07:59.901Z,62.96
2023-03-26T00:10:26.450Z,63.50
2023-03-26T00:12:53.096Z,63.31
2023-03-26T00:15:19.725Z,63.49
2023-03-26T00:17:46.625Z,62.99
2023-03-26T00:20:13.476Z,63.07
2023-03-26T00:22:41.429Z,63.21
2023-03-26T00:25:08.520Z,63.33
2023-03-26T00:27:35.176Z,63.10
2023-03-26T00:30:01.922Z,63.31
2023-03-26T00:32:28.579Z,63.68
2023-03-26T00:34:55.274Z,64.10
2023-03-26T00:37:22.382Z,64.22
2023-03-26T00:39:50.290Z,64.46
2023-03-26T00:42:16.920Z,64.67
2023-03-26T00:44:43.837Z,64.68
2023-03-26T00:47:10.467Z,64.83
2023-03-26T00:49:37.014Z,65.16
2023-03-26T00:52:04.048Z,65.78
2023-03-26T00:54:30.606Z,66.38
2023-03-26T00:56:58.624Z,65.98
2023-03-26T00:59:25.447Z,66.18
2023-03-26T01:01:52.513Z,66.50
2023-03-26T01:04:23.783Z,66.72
2023-03-26T01:06:50.895Z,67.80
2023-03-26T01:09:20.273Z,68.37
2023-03-26T01:11:48.658Z,68.97
2023-03-26T01:14:19.693Z,69.10
2023-03-26T01:16:51.763Z,69.35
2023-03-26T01:19:23.720Z,70.31
2023-03-26T01:21:50.647Z,70.31
2023-03-26T01:24:18.931Z,70.68
2023-03-26T01:26:59.753Z,70.88
2023-03-26T01:29:32.330Z,71.01
2023-03-26T01:32:06.921Z,71.77
2023-03-26T01:34:50.195Z,71.95
2023-03-26T01:37:23.518Z,71.76
2023-03-26T01:39:55.421Z,72.25
2023-03-26T01:42:24.859Z,72.69
2023-03-26T01:44:57.678Z,73.16
2023-03-26T01:47:24.726Z,73.51
2023-03-26T01:49:51.264Z,74.10
2023-03-26T01:52:21.536Z,74.56
2023-03-26T01:54:48.894Z,74.78
2023-03-26T01:57:23.708Z,75.18
2023-03-26T02:00:06.913Z,75.14
2023-03-26T02:02:50.202Z,77.10
2023-03-26T02:05:22.894Z,77.63
2023-03-26T02:07:55.508Z,77.89
2023-03-26T02:10:28.074Z,78.14
2023-03-26T02:12:57.559Z,77.92
2023-03-26T02:15:24.520Z,78.17
2023-03-26T02:17:51.154Z,77.86
2023-03-26T02:20:18.884Z,78.52
2023-03-26T02:22:47.017Z,78.72
2023-03-26T02:25:18.610Z,79.03
2023-03-26T02:27:47.211Z,79.44
2023-03-26T02:30:16.890Z,79.91
2023-03-26T02:32:47.724Z,80.39
2023-03-26T02:35:14.595Z,80.94
2023-03-26T02:37:41.717Z,80.96
2023-03-26T02:40:14.030Z,81.78
2023-03-26T02:42:43.062Z,81.93
2023-03-26T02:45:10.079Z,81.84
2023-03-26T02:47:56.817Z,81.79
2023-03-26T02:50:45.990Z,81.95
2023-03-26T02:53:39.168Z,81.71
2023-03-26T02:56:29.300Z,82.10
2023-03-26T02:59:08.674Z,82.12
2023-03-26T03:01:35.736Z,82.40
2023-03-26T03:04:04.278Z,82.77
2023-03-26T03:06:35.327Z,82.93
2023-03-26T03:09:02.024Z,82.84
2023-03-26T03:11:38.575Z,83.20
2023-03-26T03:14:06.476Z,83.33
2023-03-26T03:16:34.069Z,83.66
2023-03-26T03:19:07.883Z,83.23
2023-03-26T03:21:38.937Z,83.11
2023-03-26T03:24:07.344Z,82.87
2023-03-26T03:26:37.627Z,83.07
2023-03-26T03:29:16.363Z,83.66
2023-03-26T03:31:43.298Z,83.98
2023-03-26T03:34:22.839Z,84.22
2023-03-26T03:36:50.988Z,84.77
2023-03-26T03:39:32.125Z,85.35
2023-03-26T03:41:59.106Z,85.18
2023-03-26T03:44:25.750Z,85.53
2023-03-26T03:46:52.721Z,86.13
2023-03-26T03:49:19.750Z,86.23
2023-03-26T03:51:47.792Z,87.00
2023-03-26T03:54:29.501Z,87.09
2023-03-26T03:57:14.789Z,87.26
2023-03-26T04:00:03.132Z,87.42
2023-03-26T04:02:42.053Z,87.48
2023-03-26T04:05:09.852Z,87.78
2023-03-26T04:07:39.811Z,87.96
2023-03-26T04:10:08.574Z,88.63
2023-03-26T04:12:53.891Z,88.66
2023-03-26T04:15:33.331Z,88.87
2023-03-26T04:18:00.429Z,88.81
2023-03-26T04:20:26.990Z,89.49
2023-03-26T04:22:55.523Z,89.92
2023-03-26T04:25:25.419Z,90.53
2023-03-26T04:27:57.877Z,91.23
2023-03-26T04:30:39.869Z,91.35
2023-03-26T04:33:23.694Z,90.86
2023-03-26T04:35:51.703Z,91.45
2023-03-26T04:38:20.994Z,91.65
2023-03-26T04:40:51.309Z,91.64
2023-03-26T04:43:44.074Z,91.52
2023-03-26T04:46:19.083Z,91.87
2023-03-26T04:48:54.384Z,92.24
2023-03-26T04:51:25.034Z,91.82
2023-03-26T04:53:55.741Z,92.44
2023-03-26T04:56:52.356Z,92.82
2023-03-26T04:59:34.372Z,92.60
2023-03-26T05:02:05.242Z,92.44
2023-03-26T05:04:38.834Z,92.94
2023-03-26T05:07:06.564Z,93.41
2023-03-26T05:09:41.271Z,93.32
2023-03-26T05:12:12.934Z,94.03
2023-03-26T05:14:51.487Z,94.16
2023-03-26T05:17:28.231Z,93.72
2023-03-26T05:19:55.038Z,94.10
2023-03-26T05:22:22.214Z,94.08
2023-03-26T05:25:17.393Z,93.86
2023-03-26T05:27:45.003Z,94.09
2023-03-26T05:30:14.215Z,93.90
2023-03-26T05:32:46.190Z,94.47
2023-03-26T05:35:13.026Z,94.10
2023-03-26T05:37:39.834Z,94.61
2023-03-26T05:40:08.848Z,94.41
2023-03-26T05:42:47.495Z,94.42
2023-03-26T05:45:32.605Z,94.70
2023-03-26T05:48:04.743Z,94.88
2023-03-26T05:50:31.478Z,94.91
2023-03-26T05:53:00.092Z,94.70
2023-03-26T05:55:53.046Z,95.02
2023-03-26T05:58:51.924Z,94.96
2023-03-26T06:01:40.073Z,94.79
2023-03-26T06:04:15.882Z,95.10
2023-03-26T06:06:51.774Z,95.44
2023-03-26T06:09:18.625Z,94.93
2023-03-26T06:11:45.757Z,95.37
2023-03-26T06:14:14.005Z,95.21
2023-03-26T06:16:55.870Z,95.46
2023-03-26T06:19:23.347Z,95.56
2023-03-26T06:22:00.294Z,95.88
2023-03-26T06:24:35.009Z,96.36
2023-03-26T06:27:20.491Z,96.13
2023-03-26T06:30:18.008Z,96.31
2023-03-26T06:32:53.788Z,96.27
2023-03-26T06:35:24.892Z,96.34
2023-03-26T06:37:51.729Z,96.45
2023-03-26T06:40:18.687Z,96.03
2023-03-26T06:43:08.226Z,96.19
2023-03-26T06:46:01.945Z,96.11
2023-03-26T06:48:48.570Z,96.36
2023-03-26T06:51:18.405Z,96.77
2023-03-26T06:54:04.270Z,96.36
2023-03-26T06:56:50.526Z,96.55
2023-03-26T06:59:37.483Z,96.38
2023-03-26T07:02:24.294Z,96.80
2023-03-26T07:05:09.754Z,94.74
2023-03-26T07:08:08.501Z,93.58
2023-03-26T07:10:54.101Z,93.24
2023-03-26T07:13:44.071Z,93.46
2023-03-26T07:16:29.293Z,94.50
2023-03-26T07:19:10.704Z,94.66
2023-03-26T07:21:40.068Z,94.07
2023-03-26T07:24:22.198Z,95.77
2023-03-26T07:27:06.743Z,96.69
2023-03-26T07:29:44.698Z,96.87
2023-03-26T07:32:39.371Z,97.37
2023-03-26T07:35:51.499Z,97.13
2023-03-26T07:38:51.938Z,97.76
2023-03-26T07:41:50.862Z,97.43
2023-03-26T07:44:46.747Z,97.02
2023-03-26T07:47:31.825Z,96.85
2023-03-26T07:50:25.289Z,96.72
2023-03-26T07:53:16.889Z,97.12
2023-03-26T07:56:05.509Z,97.06
2023-03-26T07:58:59.181Z,96.92
2023-03-26T08:01:55.054Z,97.17
2023-03-26T08:04:50.533Z,96.87
2023-03-26T08:07:49.801Z,96.79
2023-03-26T08:10:27.949Z,96.94
2023-03-26T08:13:09.978Z,96.75
2023-03-26T08:15:41.953Z,96.84
2023-03-26T08:18:22.532Z,97.23
2023-03-26T08:20:51.484Z,96.93
2023-03-26T08:23:27.370Z,94.34
2023-03-26T08:26:28.381Z,95.59
2023-03-26T08:29:05.917Z,95.39
2023-03-26T08:31:35.376Z,95.70
2023-03-26T08:34:02.290Z,95.90
2023-03-26T08:36:28.969Z,95.91
2023-03-26T08:38:55.552Z,95.80
2023-03-26T08:41:55.533Z,95.66
2023-03-26T08:45:07.048Z,95.46
2023-03-26T08:48:13.326Z,95.90
2023-03-26T08:51:06.901Z,95.81
2023-03-26T08:54:10.726Z,95.59
2023-03-26T08:56:49.603Z,95.88
2023-03-26T08:59:40.354Z,95.43
2023-03-26T09:02:17.744Z,93.50
2023-03-26T09:05:20.365Z,93.44
2023-03-26T09:08:04.004Z,90.73
2023-03-26T09:10:46.129Z,90.19
2023-03-26T09:13:46.172Z,90.83
2023-03-26T09:16:41.828Z,87.23
2023-03-26T09:19:37.090Z,89.05
2023-03-26T09:22:42.576Z,91.09
2023-03-26T09:25:26.052Z,90.96
2023-03-26T09:28:21.230Z,91.29
2023-03-26T09:31:11.522Z,90.12
2023-03-26T09:33:54.520Z,90.61
2023-03-26T09:36:32.902Z,90.66
2023-03-26T09:39:09.023Z,91.19
2023-03-26T09:41:41.749Z,91.54
2023-03-26T09:44:39.694Z,91.67
2023-03-26T09:47:53.736Z,91.88
2023-03-26T09:50:31.610Z,90.45
2023-03-26T09:53:08.866Z,90.97
2023-03-26T09:55:50.719Z,92.03
2023-03-26T09:59:01.988Z,91.01
2023-03-26T10:01:38.829Z,91.35
2023-03-26T10:04:40.943Z,91.12
2023-03-26T10:07:27.514Z,90.86
2023-03-26T10:10:01.178Z,90.44
2023-03-26T10:12:34.855Z,91.31
2023-03-26T10:15:16.363Z,89.93
2023-03-26T10:17:54.261Z,89.25
2023-03-26T10:20:37.852Z,88.54
2023-03-26T10:23:22.867Z,89.54
2023-03-26T10:26:05.584Z,88.18
2023-03-26T10:28:48.350Z,86.98
2023-03-26T10:31:33.761Z,87.10
2023-03-26T10:34:28.919Z,86.26
2023-03-26T10:37:05.918Z,86.06
2023-03-26T10:39:59.708Z,84.73
2023-03-26T10:42:48.282Z,84.29
2023-03-26T10:46:01.252Z,85.44
2023-03-26T10:48:36.796Z,84.22
2023-03-26T10:51:33.117Z,83.94
2023-03-26T10:54:05.958Z,84.47
2023-03-26T10:56:39.395Z,86.11
2023-03-26T10:59:08.279Z,84.66
2023-03-26T11:01:41.238Z,83.62
2023-03-26T11:04:20.946Z,85.31
2023-03-26T11:06:59.248Z,85.44
2023-03-26T11:09:35.922Z,85.52
2023-03-26T11:12:26.599Z,84.95
2023-03-26T11:15:05.065Z,83.71
2023-03-26T11:17:43.279Z,84.73
2023-03-26T11:20:16.589Z,85.62
2023-03-26T11:22:57.130Z,86.88
2023-03-26T11:25:35.661Z,86.07
2023-03-26T11:28:15.919Z,84.82
2023-03-26T11:30:48.450Z,84.58
2023-03-26T11:33:20.649Z,86.73
2023-03-26T11:35:49.727Z,83.79
2023-03-26T11:38:21.474Z,83.66
2023-03-26T11:40:50.276Z,84.43
2023-03-26T11:43:33.024Z,83.86
2023-03-26T11:46:01.559Z,84.11
2023-03-26T11:48:32.154Z,82.32
2023-03-26T11:51:02.766Z,80.96
2023-03-26T11:53:32.956Z,81.79
2023-03-26T11:56:02.726Z,80.11
2023-03-26T11:58:34.950Z,80.56
2023-03-26T12:01:05.225Z,82.29
2023-03-26T12:03:31.844Z,84.08
2023-03-26T12:05:59.811Z,80.81
2023-03-26T12:08:32.829Z,84.16
2023-03-26T12:11:06.074Z,82.98
2023-03-26T12:13:38.911Z,84.56
2023-03-26T12:16:12.146Z,84.76
2023-03-26T12:18:41.117Z,81.92
2023-03-26T12:21:10.229Z,78.15
2023-03-26T12:23:53.521Z,79.12
2023-03-26T12:26:29.541Z,76.57
2023-03-26T12:29:08.119Z,76.71
2023-03-26T12:31:47.987Z,74.84
2023-03-26T12:34:16.896Z,75.41
2023-03-26T12:36:49.134Z,75.98
2023-03-26T12:40:08.988Z,77.15
2023-03-26T12:44:48.981Z,77.96
2023-03-26T12:45:23.827Z,76.49
2023-03-26T12:47:57.671Z,78.07
2023-03-26T12:50:37.820Z,78.61
2023-03-26T12:53:17.663Z,78.56
2023-03-26T12:55:58.376Z,78.21
2023-03-26T12:58:48.968Z,77.17
2023-03-26T13:01:28.388Z,77.19
2023-03-26T13:04:18.661Z,77.17
2023-03-26T13:07:01.375Z,78.34
2023-03-26T13:09:57.282Z,78.21
2023-03-26T13:12:35.813Z,79.00
2023-03-26T13:15:11.996Z,79.53
2023-03-26T13:17:50.345Z,79.33
2023-03-26T13:20:22.708Z,79.52
2023-03-26T13:23:02.372Z,79.37
2023-03-26T13:25:38.811Z,79.00
2023-03-26T13:28:21.411Z,77.83
2023-03-26T13:30:56.614Z,77.71
2023-03-26T13:33:36.198Z,77.62
2023-03-26T13:36:22.648Z,77.13
2023-03-26T13:39:03.102Z,77.43
2023-03-26T13:41:43.854Z,79.70
2023-03-26T13:44:19.757Z,78.05
2023-03-26T13:46:52.503Z,78.48
2023-03-26T13:49:29.142Z,79.20
2023-03-26T13:52:00.518Z,78.52
2023-03-26T13:54:32.344Z,77.84
2023-03-26T13:57:09.365Z,78.20
2023-03-26T13:59:40.502Z,79.24
2023-03-26T14:02:13.726Z,79.72
2023-03-26T14:04:46.639Z,80.38
2023-03-26T14:07:18.632Z,78.80
2023-03-26T14:09:50.755Z,79.45
2023-03-26T14:12:42.180Z,78.03
2023-03-26T14:15:13.981Z,77.95
2023-03-26T14:17:47.032Z,79.27
2023-03-26T14:20:47.084Z,80.07
2023-03-26T14:23:30.166Z,81.14
2023-03-26T14:26:13.944Z,81.71
2023-03-26T14:29:05.714Z,82.70
2023-03-26T14:31:36.277Z,83.28
2023-03-26T14:34:22.479Z,83.52
2023-03-26T14:37:13.363Z,83.42
2023-03-26T14:40:07.648Z,81.68
2023-03-26T14:42:40.907Z,81.15
2023-03-26T14:45:49.637Z,80.88
2023-03-26T14:48:47.161Z,81.61
2023-03-26T14:51:26.697Z,80.10
2023-03-26T14:53:59.052Z,81.87
2023-03-26T14:57:02.448Z,80.85
2023-03-26T15:00:16.356Z,80.68
2023-03-26T15:03:26.540Z,79.62
2023-03-26T15:06:26.048Z,80.21
2023-03-26T15:09:40.076Z,79.12
2023-03-26T15:12:18.614Z,80.68
2023-03-26T15:15:28.328Z,81.01
2023-03-26T15:18:42.051Z,80.78
2023-03-26T15:21:43.173Z,80.92
2023-03-26T15:24:43.364Z,82.39
2023-03-26T15:27:37.192Z,82.31
2023-03-26T15:30:49.470Z,83.97
2023-03-26T15:33:46.436Z,83.93
2023-03-26T15:36:55.350Z,84.17
2023-03-26T15:39:40.565Z,85.40
2023-03-26T15:42:14.124Z,85.49
2023-03-26T15:44:54.367Z,85.71
2023-03-26T15:47:54.012Z,86.32
2023-03-26T15:50:35.614Z,86.76
2023-03-26T15:53:15.177Z,87.38
2023-03-26T15:55:52.607Z,87.55
2023-03-26T15:58:26.724Z,87.98
2023-03-26T16:01:03.730Z,87.61
2023-03-26T16:03:40.693Z,87.45
2023-03-26T16:06:28.142Z,86.77
2023-03-26T16:09:08.932Z,85.40
2023-03-26T16:12:00.004Z,85.09
2023-03-26T16:14:43.918Z,81.92
2023-03-26T16:17:13.598Z,83.33
2023-03-26T16:19:50.435Z,83.74
2023-03-26T16:22:42.518Z,82.30
2023-03-26T16:25:28.754Z,82.42
2023-03-26T16:28:29.333Z,80.94
2023-03-26T16:31:36.439Z,81.13
2023-03-26T16:34:26.894Z,79.53
2023-03-26T16:36:54.144Z,80.20
2023-03-26T16:39:25.119Z,80.63
2023-03-26T16:42:09.909Z,80.20
2023-03-26T16:44:44.963Z,81.65
2023-03-26T16:47:26.458Z,81.73
2023-03-26T16:50:08.516Z,81.96
2023-03-26T16:52:45.600Z,82.16
2023-03-26T16:55:27.522Z,81.99
2023-03-26T16:58:05.890Z,82.01
2023-03-26T17:00:46.429Z,81.81
2023-03-26T17:03:24.773Z,82.82
2023-03-26T17:06:04.073Z,82.83
2023-03-26T17:08:38.403Z,83.55
2023-03-26T17:11:18.787Z,83.34
2023-03-26T17:13:55.681Z,82.64
2023-03-26T17:16:28.044Z,82.84
2023-03-26T17:19:01.412Z,82.08
2023-03-26T17:21:45.756Z,82.87
2023-03-26T17:24:24.959Z,82.35
2023-03-26T17:27:21.689Z,82.32
2023-03-26T17:30:02.238Z,82.20
2023-03-26T17:32:54.907Z,82.48
2023-03-26T17:35:36.472Z,83.90
2023-03-26T17:38:03.984Z,83.78
2023-03-26T17:40:45.648Z,83.38
2023-03-26T17:43:33.248Z,84.12
2023-03-26T17:46:03.936Z,83.34
2023-03-26T17:48:36.339Z,83.70
2023-03-26T17:51:13.472Z,83.98
2023-03-26T17:53:41.387Z,83.98
2023-03-26T17:56:15.948Z,83.25
2023-03-26T17:58:46.105Z,83.45
2023-03-26T18:01:26.738Z,83.28
2023-03-26T18:03:56.909Z,83.76
2023-03-26T18:06:41.199Z,82.62
2023-03-26T18:09:24.847Z,83.37
2023-03-26T18:12:09.672Z,83.00
2023-03-26T18:14:57.881Z,83.15
2023-03-26T18:17:25.950Z,82.48
2023-03-26T18:19:54.225Z,83.44
2023-03-26T18:22:24.638Z,83.96
2023-03-26T18:24:55.356Z,84.42
2023-03-26T18:27:23.577Z,84.53
2023-03-26T18:30:01.575Z,84.48
2023-03-26T18:32:31.814Z,85.05
2023-03-26T18:35:00.561Z,84.90
2023-03-26T18:37:28.840Z,85.91
2023-03-26T18:40:00.590Z,85.92
2023-03-26T18:42:27.189Z,85.82
2023-03-26T18:44:59.616Z,86.04
2023-03-26T18:47:31.185Z,86.33
2023-03-26T18:49:58.690Z,86.52
2023-03-26T18:52:27.961Z,86.71
2023-03-26T18:54:56.424Z,86.79
2023-03-26T18:57:25.026Z,86.60
2023-03-26T18:59:53.177Z,86.94
2023-03-26T19:02:21.174Z,87.55
2023-03-26T19:04:50.920Z,86.96
2023-03-26T19:07:22.055Z,87.50
2023-03-26T19:09:50.042Z,86.18
2023-03-26T19:12:18.736Z,86.10
2023-03-26T19:14:56.242Z,84.42
2023-03-26T19:17:26.592Z,84.24
2023-03-26T19:19:55.903Z,84.09
2023-03-26T19:22:25.169Z,83.89
2023-03-26T19:24:57.073Z,84.18
2023-03-26T19:27:23.933Z,84.55
2023-03-26T19:29:51.017Z,82.76
2023-03-26T19:32:19.318Z,83.50
2023-03-26T19:34:47.573Z,84.49
2023-03-26T19:37:21.074Z,83.63
2023-03-26T19:39:50.245Z,84.24
2023-03-26T19:42:19.885Z,84.75
2023-03-26T19:44:47.762Z,84.85
2023-03-26T19:47:17.955Z,84.45
2023-03-26T19:49:53.474Z,84.95
2023-03-26T19:52:25.385Z,84.68
2023-03-26T19:54:59.755Z,84.83
2023-03-26T19:57:28.623Z,85.11
2023-03-26T19:59:55.494Z,83.03
2023-03-26T20:02:22.464Z,81.85
2023-03-26T20:04:49.368Z,81.14
2023-03-26T20:07:18.272Z,79.62
2023-03-26T20:09:46.477Z,80.25
2023-03-26T20:12:13.258Z,79.26
2023-03-26T20:14:39.838Z,79.02
2023-03-26T20:17:14.158Z,78.67
2023-03-26T20:19:41.101Z,79.46
2023-03-26T20:22:13.146Z,77.63
2023-03-26T20:24:40.078Z,77.88
2023-03-26T20:27:08.050Z,78.32
2023-03-26T20:29:34.702Z,77.48
2023-03-26T20:32:01.237Z,78.33
2023-03-26T20:34:27.927Z,78.80
2023-03-26T20:36:54.747Z,79.22
2023-03-26T20:39:22.029Z,80.67
2023-03-26T20:41:49.490Z,79.96
2023-03-26T20:44:19.468Z,77.69
2023-03-26T20:46:47.856Z,76.72
2023-03-26T20:49:15.079Z,78.24
2023-03-26T20:51:42.139Z,76.50
2023-03-26T20:54:14.613Z,76.80
2023-03-26T20:56:41.496Z,76.69
2023-03-26T20:59:11.500Z,77.32
2023-03-26T21:01:39.980Z,76.80
2023-03-26T21:04:07.254Z,77.05
2023-03-26T21:06:34.223Z,77.83
2023-03-26T21:09:01.410Z,74.63
2023-03-26T21:11:39.364Z,75.66
2023-03-26T21:14:14.213Z,74.94
2023-03-26T21:16:43.395Z,75.30
2023-03-26T21:19:10.452Z,75.68
2023-03-26T21:21:49.181Z,75.12
2023-03-26T21:24:24.961Z,73.16
2023-03-26T21:26:59.434Z,73.50
2023-03-26T21:29:26.631Z,74.29
2023-03-26T21:31:55.303Z,74.71
2023-03-26T21:34:22.920Z,74.34
2023-03-26T21:36:50.093Z,73.90
2023-03-26T21:39:17.313Z,73.72
2023-03-26T21:41:48.085Z,73.10
2023-03-26T21:44:14.800Z,72.58
2023-03-26T21:46:42.678Z,71.42
2023-03-26T21:49:11.875Z,72.88
2023-03-26T21:51:39.186Z,72.31
2023-03-26T21:54:11.227Z,72.57
2023-03-26T21:56:45.538Z,72.00
2023-03-26T21:59:23.137Z,71.79
2023-03-26T22:01:57.520Z,72.06
2023-03-26T22:04:34.835Z,72.03
2023-03-26T22:07:07.204Z,72.35
2023-03-26T22:09:36.317Z,70.37
2023-03-26T22:12:03.761Z,67.82
2023-03-26T22:14:30.465Z,67.64
2023-03-26T22:16:57.083Z,67.45
2023-03-26T22:19:25.062Z,67.72
2023-03-26T22:21:51.668Z,66.99
2023-03-26T22:24:18.329Z,66.38
2023-03-26T22:26:44.935Z,67.15
2023-03-26T22:29:11.589Z,67.18
2023-03-26T22:31:38.808Z,67.61
2023-03-26T22:34:05.964Z,68.13
2023-03-26T22:36:34.439Z,68.56
2023-03-26T22:39:01.429Z,67.33
2023-03-26T22:41:27.984Z,65.68
2023-03-26T22:43:55.315Z,64.42
2023-03-26T22:46:22.994Z,65.79
2023-03-26T22:48:49.686Z,63.10
2023-03-26T22:51:16.244Z,64.71
2023-03-26T22:53:44.826Z,64.17
2023-03-26T22:56:12.062Z,64.52
2023-03-26T22:58:38.802Z,64.84
2023-03-26T23:01:08.167Z,64.82
2023-03-26T23:03:35.714Z,64.10
2023-03-26T23:06:05.114Z,62.56
2023-03-26T23:08:32.539Z,64.04
2023-03-26T23:11:00.916Z,64.81
2023-03-26T23:13:27.661Z,64.91
2023-03-26T23:15:55.859Z,65.10
2023-03-26T23:18:23.568Z,64.25
2023-03-26T23:20:50.288Z,63.49
2023-03-26T23:23:16.919Z,62.90
2023-03-26T23:25:44.152Z,64.11
2023-03-26T23:28:12.172Z,64.27
2023-03-26T23:30:40.329Z,64.09
2023-03-26T23:33:06.970Z,63.78
2023-03-26T23:35:33.815Z,63.98
2023-03-26T23:38:00.396Z,65.14
2023-03-26T23:40:26.969Z,66.00
2023-03-26T23:42:53.614Z,66.74
2023-03-26T23:45:21.488Z,67.07
2023-03-26T23:47:48.127Z,67.94
2023-03-26T23:50:14.772Z,68.09
2023-03-26T23:52:41.344Z,68.18
2023-03-26T23:55:08.634Z,68.90
2023-03-26T23:57:35.334Z,69.18
